UAE223 EDDF-EGLL
Flight info
| Callsign | UAE223 |
|---|---|
| Flight time | 1h 0m |
| Altitude | 25000 |
| Route | OBOKA5S/18 OBOKA Z29 TORNU DCT ABNED L980 LOGAN LOGAN2H |
| Aircraft | B77L/H-SDE1E2E3FGHIJ2J3J4J5M1RWXYZ/LB1D1 |
Departure
| Time | 2026-05-04 14:34 |
|---|---|
| Airport | Frankfurt Main Airport (EDDF) |
Arrival
| Time | 2026-05-04 15:34 |
|---|---|
| Airport | London Heathrow Airport (EGLL) |
| Time | Latitude | Longitude | Altitude | Speed | Heading |
|---|---|---|---|---|---|
| 2026-05-04 13:58 | 50.03690 | 8.52974 | 350 ft | 0 kts | 340° |
| 2026-05-04 14:13 | 50.03674 | 8.52983 | 360 ft | 7 kts | 340° |
| 2026-05-04 14:13 | 50.03660 | 8.52991 | 360 ft | 6 kts | 340° |
| 2026-05-04 14:13 | 50.03646 | 8.53000 | 359 ft | 3 kts | 340° |
| 2026-05-04 14:14 | 50.03617 | 8.53016 | 359 ft | 2 kts | 341° |
| 2026-05-04 14:14 | 50.03647 | 8.52999 | 359 ft | 1 kts | 341° |
| 2026-05-04 14:14 | 50.03611 | 8.53019 | 360 ft | 0 kts | 341° |
| 2026-05-04 14:15 | 50.03612 | 8.53018 | 358 ft | 0 kts | 341° |
| 2026-05-04 14:15 | 50.03649 | 8.53106 | 358 ft | 0 kts | 79° |
| 2026-05-04 14:16 | 50.03639 | 8.53167 | 358 ft | 0 kts | 108° |
| 2026-05-04 14:16 | 50.03645 | 8.53211 | 360 ft | 0 kts | 71° |
| 2026-05-04 14:26 | 50.03674 | 8.53335 | 360 ft | 1 kts | 66° |
| 2026-05-04 14:27 | 50.03688 | 8.53412 | 355 ft | 11 kts | 70° |
| 2026-05-04 14:27 | 50.03709 | 8.53485 | 357 ft | 0 kts | 70° |
| 2026-05-04 14:27 | 50.03688 | 8.53548 | 360 ft | 15 kts | 143° |
| 2026-05-04 14:27 | 50.03614 | 8.53550 | 357 ft | 0 kts | 198° |
| 2026-05-04 14:28 | 50.03605 | 8.53543 | 360 ft | 8 kts | 208° |
| 2026-05-04 14:28 | 50.03533 | 8.53508 | 354 ft | 17 kts | 174° |
| 2026-05-04 14:28 | 50.03505 | 8.53663 | 356 ft | 17 kts | 72° |
| 2026-05-04 14:28 | 50.03536 | 8.53839 | 355 ft | 17 kts | 84° |
| 2026-05-04 14:29 | 50.03623 | 8.54188 | 355 ft | 18 kts | 68° |
| 2026-05-04 14:29 | 50.03714 | 8.54545 | 357 ft | 18 kts | 69° |
| 2026-05-04 14:30 | 50.03756 | 8.54728 | 358 ft | 18 kts | 69° |
| 2026-05-04 14:30 | 50.03800 | 8.54920 | 357 ft | 24 kts | 78° |
| 2026-05-04 14:30 | 50.03962 | 8.55590 | 355 ft | 32 kts | 71° |
| 2026-05-04 14:31 | 50.04037 | 8.55899 | 358 ft | 30 kts | 70° |
| 2026-05-04 14:31 | 50.04183 | 8.56505 | 359 ft | 30 kts | 68° |
| 2026-05-04 14:32 | 50.04272 | 8.56888 | 358 ft | 31 kts | 70° |
| 2026-05-04 14:32 | 50.04346 | 8.57191 | 353 ft | 30 kts | 67° |
| 2026-05-04 14:32 | 50.04418 | 8.57498 | 357 ft | 32 kts | 70° |
| 2026-05-04 14:32 | 50.04504 | 8.57874 | 358 ft | 38 kts | 68° |
| 2026-05-04 14:33 | 50.04593 | 8.58228 | 358 ft | 32 kts | 69° |
| 2026-05-04 14:33 | 50.04647 | 8.58429 | 360 ft | 30 kts | 67° |
| 2026-05-04 14:33 | 50.04617 | 8.58563 | 357 ft | 13 kts | 149° |
| 2026-05-04 14:33 | 50.04560 | 8.58596 | 358 ft | 14 kts | 166° |
| 2026-05-04 14:34 | 50.04479 | 8.58530 | 360 ft | 14 kts | 233° |
| 2026-05-04 14:34 | 50.04411 | 8.58289 | 358 ft | 61 kts | 251° |
| 2026-05-04 14:34 | 50.04098 | 8.57037 | 429 ft | 177 kts | 248° |
| 2026-05-04 14:34 | 50.03643 | 8.55034 | 1367 ft | 219 kts | 252° |
| 2026-05-04 14:35 | 50.03136 | 8.52758 | 2737 ft | 214 kts | 251° |
| 2026-05-04 14:35 | 50.02671 | 8.50650 | 4054 ft | 204 kts | 261° |
| 2026-05-04 14:35 | 50.02801 | 8.47765 | 4890 ft | 202 kts | 276° |
| 2026-05-04 14:35 | 50.02910 | 8.46305 | 5004 ft | 203 kts | 275° |
| 2026-05-04 14:36 | 50.03045 | 8.44134 | 5040 ft | 200 kts | 266° |
| 2026-05-04 14:36 | 50.02819 | 8.41934 | 5555 ft | 217 kts | 257° |
| 2026-05-04 14:36 | 50.02484 | 8.39454 | 6106 ft | 249 kts | 256° |
| 2026-05-04 14:36 | 50.02139 | 8.36769 | 7119 ft | 256 kts | 256° |
| 2026-05-04 14:37 | 50.01798 | 8.34017 | 8199 ft | 262 kts | 256° |
| 2026-05-04 14:37 | 50.01452 | 8.31176 | 9287 ft | 273 kts | 256° |
| 2026-05-04 14:37 | 50.01303 | 8.28190 | 10273 ft | 287 kts | 275° |
| 2026-05-04 14:37 | 50.01962 | 8.25226 | 11286 ft | 295 kts | 291° |
| 2026-05-04 14:38 | 50.02842 | 8.22317 | 12265 ft | 297 kts | 291° |
| 2026-05-04 14:38 | 50.03719 | 8.19369 | 12899 ft | 304 kts | 291° |
| 2026-05-04 14:38 | 50.04593 | 8.16393 | 13010 ft | 308 kts | 291° |
| 2026-05-04 14:38 | 50.05489 | 8.13326 | 13013 ft | 307 kts | 291° |
| 2026-05-04 14:39 | 50.06515 | 8.10475 | 13008 ft | 307 kts | 302° |
| 2026-05-04 14:39 | 50.07828 | 8.07834 | 13017 ft | 309 kts | 306° |
| 2026-05-04 14:39 | 50.09212 | 8.05258 | 13017 ft | 311 kts | 307° |
| 2026-05-04 14:40 | 50.11986 | 8.00077 | 13024 ft | 312 kts | 306° |
| 2026-05-04 14:40 | 50.13307 | 7.97564 | 13028 ft | 312 kts | 306° |
| 2026-05-04 14:40 | 50.14679 | 7.94924 | 13512 ft | 315 kts | 306° |
| 2026-05-04 14:40 | 50.16058 | 7.92252 | 14567 ft | 317 kts | 306° |
| 2026-05-04 14:41 | 50.17441 | 7.89560 | 15649 ft | 319 kts | 305° |
| 2026-05-04 14:41 | 50.18836 | 7.86835 | 16663 ft | 324 kts | 305° |
| 2026-05-04 14:41 | 50.21695 | 7.81242 | 18642 ft | 335 kts | 305° |
| 2026-05-04 14:42 | 50.24633 | 7.75491 | 20446 ft | 340 kts | 306° |
| 2026-05-04 14:42 | 50.26443 | 7.73020 | 21211 ft | 356 kts | 328° |
| 2026-05-04 14:42 | 50.28724 | 7.71422 | 22006 ft | 363 kts | 334° |
| 2026-05-04 14:43 | 50.31079 | 7.69911 | 22891 ft | 368 kts | 334° |
| 2026-05-04 14:43 | 50.33452 | 7.68341 | 23697 ft | 372 kts | 333° |
| 2026-05-04 14:43 | 50.35798 | 7.66750 | 24008 ft | 374 kts | 333° |
| 2026-05-04 14:43 | 50.38203 | 7.65099 | 23976 ft | 378 kts | 333° |
| 2026-05-04 14:44 | 50.40609 | 7.63445 | 23991 ft | 377 kts | 332° |
| 2026-05-04 14:44 | 50.43026 | 7.61894 | 23977 ft | 373 kts | 337° |
| 2026-05-04 14:44 | 50.45457 | 7.60395 | 24013 ft | 384 kts | 332° |
| 2026-05-04 14:44 | 50.47958 | 7.58538 | 24020 ft | 413 kts | 330° |
| 2026-05-04 14:45 | 50.50649 | 7.56539 | 24009 ft | 441 kts | 332° |
| 2026-05-04 14:45 | 50.53531 | 7.54495 | 23997 ft | 467 kts | 333° |
| 2026-05-04 14:45 | 50.56558 | 7.52353 | 23984 ft | 484 kts | 330° |
| 2026-05-04 14:45 | 50.59479 | 7.49718 | 23975 ft | 483 kts | 324° |
| 2026-05-04 14:46 | 50.62251 | 7.46742 | 23980 ft | 483 kts | 321° |
| 2026-05-04 14:46 | 50.64992 | 7.43693 | 24000 ft | 481 kts | 322° |
| 2026-05-04 14:46 | 50.67758 | 7.40713 | 23992 ft | 482 kts | 323° |
| 2026-05-04 14:46 | 50.70559 | 7.37810 | 23988 ft | 482 kts | 324° |
| 2026-05-04 14:47 | 50.73312 | 7.34851 | 23979 ft | 475 kts | 318° |
| 2026-05-04 14:47 | 50.75544 | 7.31077 | 23977 ft | 468 kts | 300° |
| 2026-05-04 14:47 | 50.77020 | 7.26563 | 24001 ft | 463 kts | 291° |
| 2026-05-04 14:47 | 50.78409 | 7.21930 | 23997 ft | 469 kts | 292° |
| 2026-05-04 14:48 | 50.79856 | 7.17319 | 23994 ft | 468 kts | 293° |
| 2026-05-04 14:48 | 50.81334 | 7.12738 | 23984 ft | 467 kts | 294° |
| 2026-05-04 14:48 | 50.82818 | 7.08187 | 23985 ft | 465 kts | 294° |
| 2026-05-04 14:48 | 50.84296 | 7.03646 | 23995 ft | 464 kts | 294° |
| 2026-05-04 14:49 | 50.85723 | 6.99239 | 23998 ft | 464 kts | 294° |
| 2026-05-04 14:49 | 50.87189 | 6.94693 | 24000 ft | 465 kts | 294° |
| 2026-05-04 14:49 | 50.88658 | 6.90127 | 23999 ft | 466 kts | 294° |
| 2026-05-04 14:49 | 50.90127 | 6.85554 | 23998 ft | 467 kts | 294° |
| 2026-05-04 14:50 | 50.91599 | 6.80963 | 23994 ft | 468 kts | 294° |
| 2026-05-04 14:50 | 50.93082 | 6.76330 | 24006 ft | 474 kts | 294° |
| 2026-05-04 14:50 | 50.94577 | 6.71648 | 24002 ft | 476 kts | 294° |
| 2026-05-04 14:50 | 50.96071 | 6.66966 | 23989 ft | 475 kts | 294° |
| 2026-05-04 14:51 | 50.97554 | 6.62314 | 23979 ft | 472 kts | 294° |
| 2026-05-04 14:51 | 50.99031 | 6.57669 | 23993 ft | 471 kts | 293° |
| 2026-05-04 14:51 | 51.00480 | 6.53104 | 23980 ft | 471 kts | 293° |
| 2026-05-04 14:51 | 51.01953 | 6.48448 | 23972 ft | 472 kts | 293° |
| 2026-05-04 14:52 | 51.03429 | 6.43773 | 23976 ft | 474 kts | 293° |
| 2026-05-04 14:52 | 51.04907 | 6.39081 | 23979 ft | 477 kts | 293° |
| 2026-05-04 14:52 | 51.06389 | 6.34361 | 23998 ft | 479 kts | 293° |
| 2026-05-04 14:52 | 51.07881 | 6.29623 | 24007 ft | 479 kts | 293° |
| 2026-05-04 14:53 | 51.09382 | 6.24853 | 23966 ft | 484 kts | 293° |
| 2026-05-04 14:53 | 51.10862 | 6.20112 | 24066 ft | 475 kts | 293° |
| 2026-05-04 14:53 | 51.12350 | 6.15357 | 24022 ft | 481 kts | 293° |
| 2026-05-04 14:53 | 51.13812 | 6.10588 | 23993 ft | 477 kts | 291° |
| 2026-05-04 14:54 | 51.15039 | 6.05704 | 23944 ft | 474 kts | 284° |
| 2026-05-04 14:54 | 51.15848 | 6.00665 | 23983 ft | 466 kts | 278° |
| 2026-05-04 14:54 | 51.16447 | 5.95801 | 23973 ft | 465 kts | 277° |
| 2026-05-04 14:54 | 51.17131 | 5.90761 | 23978 ft | 466 kts | 279° |
| 2026-05-04 14:55 | 51.17911 | 5.85743 | 23989 ft | 467 kts | 281° |
| 2026-05-04 14:55 | 51.18828 | 5.80757 | 23994 ft | 473 kts | 286° |
| 2026-05-04 14:55 | 51.20079 | 5.75875 | 23990 ft | 478 kts | 290° |
| 2026-05-04 14:55 | 51.21426 | 5.70929 | 23956 ft | 487 kts | 290° |
| 2026-05-04 14:56 | 51.22780 | 5.66040 | 23952 ft | 477 kts | 291° |
| 2026-05-04 14:56 | 51.24112 | 5.61203 | 23953 ft | 476 kts | 290° |
| 2026-05-04 14:56 | 51.25429 | 5.56342 | 23965 ft | 478 kts | 290° |
| 2026-05-04 14:56 | 51.26732 | 5.51451 | 23958 ft | 479 kts | 290° |
| 2026-05-04 14:57 | 51.28022 | 5.46545 | 23970 ft | 480 kts | 290° |
| 2026-05-04 14:57 | 51.29308 | 5.41620 | 23958 ft | 480 kts | 290° |
| 2026-05-04 14:57 | 51.30587 | 5.36695 | 23958 ft | 480 kts | 289° |
| 2026-05-04 14:57 | 51.31862 | 5.31773 | 23958 ft | 479 kts | 289° |
| 2026-05-04 14:58 | 51.33126 | 5.26889 | 23965 ft | 479 kts | 289° |
| 2026-05-04 14:58 | 51.34397 | 5.21961 | 23975 ft | 478 kts | 290° |
| 2026-05-04 14:58 | 51.35661 | 5.17058 | 23961 ft | 476 kts | 290° |
| 2026-05-04 14:58 | 51.36922 | 5.12162 | 23962 ft | 475 kts | 290° |
| 2026-05-04 14:59 | 51.38175 | 5.07285 | 23962 ft | 473 kts | 290° |
| 2026-05-04 14:59 | 51.39424 | 5.02413 | 23963 ft | 473 kts | 290° |
| 2026-05-04 14:59 | 51.41860 | 4.92877 | 23970 ft | 472 kts | 290° |
| 2026-05-04 15:00 | 51.43101 | 4.88002 | 23969 ft | 472 kts | 290° |
| 2026-05-04 15:00 | 51.44341 | 4.83120 | 23970 ft | 473 kts | 290° |
| 2026-05-04 15:00 | 51.45581 | 4.78231 | 23987 ft | 473 kts | 290° |
| 2026-05-04 15:01 | 51.48056 | 4.68436 | 23980 ft | 474 kts | 290° |
| 2026-05-04 15:01 | 51.49292 | 4.63529 | 23975 ft | 475 kts | 289° |
| 2026-05-04 15:01 | 51.50526 | 4.58616 | 23975 ft | 475 kts | 289° |
| 2026-05-04 15:01 | 51.51762 | 4.53687 | 23961 ft | 475 kts | 289° |
| 2026-05-04 15:02 | 51.52992 | 4.48773 | 23958 ft | 474 kts | 289° |
| 2026-05-04 15:02 | 51.54218 | 4.43861 | 23962 ft | 473 kts | 289° |
| 2026-05-04 15:02 | 51.55426 | 4.39016 | 23966 ft | 473 kts | 289° |
| 2026-05-04 15:02 | 51.56645 | 4.34111 | 23968 ft | 473 kts | 289° |
| 2026-05-04 15:03 | 51.57863 | 4.29200 | 23968 ft | 473 kts | 289° |
| 2026-05-04 15:03 | 51.59076 | 4.24297 | 23970 ft | 473 kts | 289° |
| 2026-05-04 15:03 | 51.60291 | 4.19376 | 23972 ft | 473 kts | 289° |
| 2026-05-04 15:03 | 51.61503 | 4.14456 | 23974 ft | 473 kts | 289° |
| 2026-05-04 15:04 | 51.62714 | 4.09532 | 23973 ft | 473 kts | 289° |
| 2026-05-04 15:04 | 51.63923 | 4.04601 | 23982 ft | 474 kts | 289° |
| 2026-05-04 15:04 | 51.65102 | 3.99784 | 23987 ft | 474 kts | 289° |
| 2026-05-04 15:04 | 51.66295 | 3.94899 | 23989 ft | 474 kts | 289° |
| 2026-05-04 15:05 | 51.67499 | 3.89955 | 23991 ft | 474 kts | 289° |
| 2026-05-04 15:05 | 51.68701 | 3.85012 | 24009 ft | 474 kts | 289° |
| 2026-05-04 15:05 | 51.69900 | 3.80063 | 24006 ft | 474 kts | 289° |
| 2026-05-04 15:05 | 51.71099 | 3.75110 | 24001 ft | 474 kts | 289° |
| 2026-05-04 15:06 | 51.72293 | 3.70167 | 23999 ft | 473 kts | 289° |
| 2026-05-04 15:06 | 51.73486 | 3.65214 | 24001 ft | 473 kts | 289° |
| 2026-05-04 15:06 | 51.74676 | 3.60264 | 24002 ft | 473 kts | 289° |
| 2026-05-04 15:07 | 51.77042 | 3.50388 | 24013 ft | 469 kts | 289° |
| 2026-05-04 15:07 | 51.78213 | 3.45485 | 23998 ft | 467 kts | 289° |
| 2026-05-04 15:07 | 51.79376 | 3.40600 | 23995 ft | 465 kts | 289° |
| 2026-05-04 15:07 | 51.80533 | 3.35733 | 24015 ft | 462 kts | 289° |
| 2026-05-04 15:08 | 51.81681 | 3.30895 | 24006 ft | 460 kts | 289° |
| 2026-05-04 15:08 | 51.82822 | 3.26073 | 23998 ft | 459 kts | 289° |
| 2026-05-04 15:08 | 51.83957 | 3.21262 | 23998 ft | 455 kts | 289° |
| 2026-05-04 15:08 | 51.84779 | 3.16325 | 23993 ft | 458 kts | 276° |
| 2026-05-04 15:09 | 51.84817 | 3.11179 | 23997 ft | 458 kts | 263° |
| 2026-05-04 15:09 | 51.84250 | 3.06140 | 24003 ft | 455 kts | 258° |
| 2026-05-04 15:09 | 51.83761 | 3.01061 | 24002 ft | 459 kts | 262° |
| 2026-05-04 15:10 | 51.83137 | 2.90939 | 24003 ft | 461 kts | 264° |
| 2026-05-04 15:10 | 51.82839 | 2.85774 | 23996 ft | 461 kts | 263° |
| 2026-05-04 15:10 | 51.82186 | 2.75550 | 23992 ft | 460 kts | 263° |
| 2026-05-04 15:11 | 51.81839 | 2.70422 | 23995 ft | 459 kts | 263° |
| 2026-05-04 15:11 | 51.81490 | 2.65305 | 23994 ft | 458 kts | 263° |
| 2026-05-04 15:11 | 51.81137 | 2.60189 | 23993 ft | 457 kts | 263° |
| 2026-05-04 15:11 | 51.80782 | 2.55089 | 23994 ft | 457 kts | 263° |
| 2026-05-04 15:12 | 51.80425 | 2.49986 | 23997 ft | 457 kts | 263° |
| 2026-05-04 15:12 | 51.80067 | 2.44888 | 23997 ft | 457 kts | 263° |
| 2026-05-04 15:12 | 51.79707 | 2.39785 | 24000 ft | 457 kts | 262° |
| 2026-05-04 15:12 | 51.79344 | 2.34675 | 23999 ft | 458 kts | 262° |
| 2026-05-04 15:13 | 51.78981 | 2.29566 | 24003 ft | 459 kts | 262° |
| 2026-05-04 15:13 | 51.78613 | 2.24446 | 23994 ft | 459 kts | 262° |
| 2026-05-04 15:13 | 51.78255 | 2.19310 | 23994 ft | 461 kts | 262° |
| 2026-05-04 15:13 | 51.77941 | 2.14159 | 23999 ft | 462 kts | 263° |
| 2026-05-04 15:14 | 51.77647 | 2.08993 | 24003 ft | 462 kts | 263° |
| 2026-05-04 15:14 | 51.77354 | 2.03817 | 24001 ft | 463 kts | 263° |
| 2026-05-04 15:14 | 51.77068 | 1.98854 | 24000 ft | 463 kts | 263° |
| 2026-05-04 15:14 | 51.76763 | 1.93679 | 24003 ft | 463 kts | 263° |
| 2026-05-04 15:15 | 51.76452 | 1.88505 | 24000 ft | 463 kts | 263° |
| 2026-05-04 15:15 | 51.76137 | 1.83332 | 23999 ft | 463 kts | 263° |
| 2026-05-04 15:15 | 51.75818 | 1.78159 | 24000 ft | 463 kts | 263° |
| 2026-05-04 15:16 | 51.75176 | 1.67820 | 24005 ft | 463 kts | 263° |
| 2026-05-04 15:16 | 51.74852 | 1.62658 | 24003 ft | 462 kts | 262° |
| 2026-05-04 15:16 | 51.74202 | 1.52429 | 23036 ft | 453 kts | 262° |
| 2026-05-04 15:17 | 51.73879 | 1.47397 | 22067 ft | 449 kts | 263° |
| 2026-05-04 15:17 | 51.73235 | 1.37481 | 20297 ft | 440 kts | 262° |
| 2026-05-04 15:17 | 51.72915 | 1.32593 | 19521 ft | 435 kts | 262° |
| 2026-05-04 15:18 | 51.72597 | 1.27765 | 18771 ft | 431 kts | 262° |
| 2026-05-04 15:18 | 51.72280 | 1.22985 | 17993 ft | 427 kts | 262° |
| 2026-05-04 15:18 | 51.71964 | 1.18257 | 17202 ft | 422 kts | 262° |
| 2026-05-04 15:19 | 51.71337 | 1.08941 | 16220 ft | 419 kts | 263° |
| 2026-05-04 15:19 | 51.71022 | 1.04297 | 16039 ft | 414 kts | 263° |
| 2026-05-04 15:19 | 51.70408 | 0.95312 | 15904 ft | 406 kts | 262° |
| 2026-05-04 15:20 | 51.70101 | 0.90875 | 15824 ft | 387 kts | 262° |
| 2026-05-04 15:20 | 51.69819 | 0.86793 | 15565 ft | 347 kts | 262° |
| 2026-05-04 15:20 | 51.69564 | 0.83119 | 15272 ft | 314 kts | 262° |
| 2026-05-04 15:20 | 51.69405 | 0.80856 | 14941 ft | 301 kts | 262° |
| 2026-05-04 15:21 | 51.69174 | 0.77581 | 14272 ft | 289 kts | 262° |
| 2026-05-04 15:21 | 51.68870 | 0.73310 | 13090 ft | 285 kts | 263° |
| 2026-05-04 15:21 | 51.68503 | 0.68149 | 11836 ft | 272 kts | 263° |
| 2026-05-04 15:22 | 51.68218 | 0.64170 | 10807 ft | 266 kts | 263° |
| 2026-05-04 15:22 | 51.68074 | 0.62170 | 10230 ft | 266 kts | 263° |
| 2026-05-04 15:22 | 51.67656 | 0.56359 | 8686 ft | 255 kts | 263° |
| 2026-05-04 15:23 | 51.67457 | 0.53596 | 8136 ft | 245 kts | 263° |
| 2026-05-04 15:23 | 51.67260 | 0.50909 | 7456 ft | 241 kts | 263° |
| 2026-05-04 15:23 | 51.67064 | 0.48226 | 6674 ft | 241 kts | 263° |
| 2026-05-04 15:23 | 51.66869 | 0.45562 | 5919 ft | 237 kts | 263° |
| 2026-05-04 15:24 | 51.66492 | 0.40460 | 6006 ft | 245 kts | 263° |
| 2026-05-04 15:24 | 51.66091 | 0.35027 | 6085 ft | 245 kts | 263° |
| 2026-05-04 15:25 | 51.65890 | 0.32322 | 6073 ft | 243 kts | 263° |
| 2026-05-04 15:25 | 51.65687 | 0.29597 | 6095 ft | 247 kts | 262° |
| 2026-05-04 15:25 | 51.65480 | 0.26824 | 6085 ft | 252 kts | 263° |
| 2026-05-04 15:26 | 51.65059 | 0.21218 | 6087 ft | 252 kts | 262° |
| 2026-05-04 15:26 | 51.64821 | 0.18453 | 6055 ft | 245 kts | 255° |
| 2026-05-04 15:26 | 51.62920 | 0.14058 | 5416 ft | 244 kts | 227° |
| 2026-05-04 15:27 | 51.61755 | 0.12041 | 4941 ft | 248 kts | 227° |
| 2026-05-04 15:27 | 51.59441 | 0.07890 | 4061 ft | 250 kts | 229° |
| 2026-05-04 15:28 | 51.57247 | 0.03793 | 3213 ft | 238 kts | 230° |
| 2026-05-04 15:28 | 51.56147 | 0.01701 | 3060 ft | 249 kts | 230° |
| 2026-05-04 15:28 | 51.53944 | -0.02516 | 3042 ft | 252 kts | 230° |
| 2026-05-04 15:29 | 51.52825 | -0.04670 | 3047 ft | 250 kts | 230° |
| 2026-05-04 15:30 | 51.48356 | -0.13274 | 3022 ft | 252 kts | 230° |
| 2026-05-04 15:30 | 51.46553 | -0.20576 | 2923 ft | 226 kts | 270° |
| 2026-05-04 15:31 | 51.46546 | -0.25221 | 2347 ft | 192 kts | 272° |
| 2026-05-04 15:31 | 51.46543 | -0.27297 | 2105 ft | 181 kts | 271° |
| 2026-05-04 15:32 | 51.46525 | -0.33152 | 1419 ft | 158 kts | 271° |
| 2026-05-04 15:32 | 51.46515 | -0.36462 | 1003 ft | 152 kts | 272° |
| 2026-05-04 15:33 | 51.46490 | -0.39829 | 551 ft | 148 kts | 274° |
| 2026-05-04 15:34 | 51.46493 | -0.44538 | 93 ft | 121 kts | 269° |
| 2026-05-04 15:34 | 51.46491 | -0.45620 | 86 ft | 61 kts | 273° |
| 2026-05-04 15:34 | 51.46604 | -0.45892 | 89 ft | 16 kts | 323° |
| 2026-05-04 15:35 | 51.46803 | -0.45983 | 91 ft | 2 kts | 356° |
| 2026-05-04 15:35 | 51.46820 | -0.45985 | 92 ft | 0 kts | 356° |
| 2026-05-04 15:35 | 51.46833 | -0.45981 | 92 ft | 9 kts | 10° |
| 2026-05-04 15:36 | 51.46886 | -0.45951 | 94 ft | 0 kts | 33° |